トロンハイム の空港の天気 - METARとTAF

Trondheim / Vaernes ( ENVA / TRD ) - ノルウェー ヌール・トロンデラーグ県、Stjordal
飛行場実況気象(Metar)
観測時間04/25 16:20 CEST (04/25 14:20 UTC)
風向・風速西 7m/s
視程10km以上
天気現象
全天の4割程度の雲 雲底高度 760m
気温8℃
湿度61%
気圧997hPa
METARENVA 251420Z 28013KT 9999 SCT025 08/01 Q0997 NOSIG RMK WIND 670FT 30011KT
過去の天気等 Google飛行場航空写真 Wunderground天気予報

過去48時間のMETAR

飛行場予報(TAF)
発表時間: -
25日22時 CEST ~ 26日1時 CEST に徐々に
風向・風速不定 4m/s
26日9時 CEST ~ 26日12時 CEST に徐々に
風向・風速西 5m/s
TAF ENVA 2512/2612 27015KT 9999 -SHRA FEW025 BKN050
BECMG 2520/2523 VRB07KT
BECMG 2607/2610 27010KT